Bookmark and Share
Track history (hours):
 

Cap Castillo

Last reported at 2014-Apr-11 18:00 UTC. Time now 2014-Apr-18 10:49 UTC.
Position N 12°00' W 068°30'.

Length 215 m; draft 7.2 m.

Type: Ship. MMSI: 636091558.

Wind from 120 at 19 knots

Waves 1.5 meters (5 feet), 99 second period

Barometer 1014.0 mb
Air temperature 27.0 ° C
Dewpoint 25.7 ° C
Water temperature 26.0 ° C

NotesDate/timePositionNaut miles runAvg speedWind from/ knotsBaromVisibWave heightAir tempDewpointWater temp
2014-Apr-11 18:00N 12°00' W 068°30'   120 / 191014.0 1.527.025.726.0
2014-Apr-08 18:00N 17°42' W 073°18'28411.8 130 / 361014.0 5.4 28.026.726.0
2014-Apr-07 18:00N 21°30' W 076°18'23816.1 120 / 201014.0 5.4 0.528.026.726.0
2014-Apr-07 03:13N 24°16' W 079°22'2018.7
2014-Apr-07 02:10N 24°35' W 079°26'6416.7
2014-Apr-06 22:20N 25°38' W 079°40'1114.5
2014-Apr-06 21:34N 25°47' W 079°47'1514.6
2014-Apr-06 20:34N 25°59' W 079°57'1111.1
2014-Apr-06 19:34N 26°05' W 080°07'1 1.0
2014-Apr-06 18:30N 26°04' W 080°07'0 0.0
2014-Apr-06 17:30N 26°04' W 080°07'0 0.0
2014-Apr-06 16:31N 26°04' W 080°07'0 0.0
2014-Apr-06 15:34N 26°04' W 080°07'0 0.0
2014-Apr-06 14:34N 26°04' W 080°07'0 0.0
2014-Apr-06 13:34N 26°04' W 080°07'0 0.0
2014-Apr-06 12:33N 26°04' W 080°07'0 0.0
2014-Apr-06 11:34N 26°04' W 080°07'0 0.0
2014-Apr-06 10:25N 26°04' W 080°07'0 0.0
2014-Apr-06 09:34N 26°04' W 080°07'0 0.0
2014-Apr-06 08:33N 26°04' W 080°07'4 4.1
2014-Apr-06 07:33N 26°06' W 080°03'2 1.4
2014-Apr-06 06:23N 26°07' W 080°05'0 0.0
2014-Apr-06 05:26N 26°07' W 080°05'0 0.0
2014-Apr-06 04:26N 26°07' W 080°05'0 0.0
2014-Apr-06 03:26N 26°07' W 080°05'0 0.0
2014-Apr-06 02:32N 26°07' W 080°05'0 0.0
2014-Apr-06 01:29N 26°07' W 080°05'0 0.0
2014-Apr-06 00:29N 26°07' W 080°05'0 0.0
2014-Apr-05 23:32N 26°07' W 080°05'0 0.0
2014-Apr-05 22:32N 26°07' W 080°05'0 0.0
2014-Apr-05 21:32N 26°07' W 080°05'0 0.0
2014-Apr-05 20:32N 26°07' W 080°05'0 0.0
2014-Apr-05 19:32N 26°07' W 080°05'0 0.0
2014-Apr-05 18:32N 26°07' W 080°05'0 0.0
2014-Apr-05 17:32N 26°07' W 080°05'0 0.0
2014-Apr-05 16:23N 26°07' W 080°05'1 0.7
2014-Apr-05 15:33N 26°07' W 080°04'6 5.8
2014-Apr-05 14:33N 26°08' W 079°58'1211.8
2014-Apr-05 13:33N 26°11' W 079°45'1413.7
2014-Apr-05 12:33N 26°15' W 079°31'1514.0
2014-Apr-05 11:29N 26°21' W 079°15'343 8.3
2014-Apr-03 18:00N 23°48' W 073°36'41317.2 060 / 211019.0 5.4 2.025.015.826.0
2014-Apr-02 18:00N 19°00' W 068°18'   050 / 191016.0 5.4 1.528.022.427.0

Dump ship's entire track history

sailing weather and tide predictions

Cap Castillo — A8PI5 — position and weather